Time;durP1;ratioP1;P1;durP2;ratioP2;P2;SDS_P1;SDS_P2;PMS_P1;PMS_P2;Temp;Humidity;BMP_temperature;BMP_pressure;BME280_temperature;BME280_humidity;BME280_pressure;Samples;Min_cycle;Max_cycle;Signal;HPM_P1;HPM_P2
2021/12/08 00:02:32;;;;;;;7.03;3.45;;;0.70;99.90;;;;;;6161018;23;20028;-80
2021/12/08 00:05:23;;;;;;;5.43;2.85;;;0.60;99.90;;;;;;6142331;23;20036;-81
2021/12/08 00:08:13;;;;;;;9.77;3.28;;;0.60;99.90;;;;;;6181859;23;20557;-81
2021/12/08 00:14:12;;;;;;;9.45;3.72;;;0.70;99.90;;;;;;6181702;23;20313;-81
2021/12/08 00:16:59;;;;;;;9.63;5.35;;;0.70;99.90;;;;;;6160566;23;20309;-80
2021/12/08 00:19:47;;;;;;;8.07;3.75;;;0.70;99.90;;;;;;6119878;23;20029;-79
2021/12/08 00:22:36;;;;;;;8.20;3.47;;;0.60;99.90;;;;;;6182256;23;20332;-81
2021/12/08 00:25:24;;;;;;;11.05;4.03;;;0.60;99.90;;;;;;6161164;23;20032;-79
2021/12/08 00:28:12;;;;;;;9.57;4.05;;;0.70;99.90;;;;;;6153359;23;20112;-81
2021/12/08 00:31:03;;;;;;;9.98;3.70;;;0.70;99.90;;;;;;6181955;23;20103;-79
2021/12/08 00:33:50;;;;;;;9.18;3.92;;;0.70;99.90;;;;;;6180971;23;20218;-79
2021/12/08 00:36:43;;;;;;;7.03;3.38;;;0.80;99.90;;;;;;6182377;23;20100;-81
2021/12/08 00:39:32;;;;;;;4.20;3.10;;;0.70;99.90;;;;;;6161838;23;20108;-83
2021/12/08 00:42:20;;;;;;;5.63;3.22;;;0.60;99.90;;;;;;6161439;23;20032;-79
2021/12/08 00:45:11;;;;;;;4.53;2.72;;;0.60;99.90;;;;;;6180225;23;20064;-81
2021/12/08 00:48:00;;;;;;;6.38;3.05;;;0.60;99.90;;;;;;6180598;23;20021;-82
2021/12/08 00:50:48;;;;;;;7.15;3.30;;;0.50;99.90;;;;;;6181617;23;20301;-79
2021/12/08 00:53:35;;;;;;;7.10;3.35;;;0.50;99.90;;;;;;6180889;23;20025;-80
2021/12/08 00:56:26;;;;;;;5.82;3.42;;;0.50;99.90;;;;;;6140292;23;20379;-82
2021/12/08 00:59:15;;;;;;;5.82;3.08;;;0.50;99.90;;;;;;6181529;23;20037;-81
2021/12/08 01:02:05;;;;;;;4.28;3.17;;;0.50;99.90;;;;;;6161238;23;20159;-79
2021/12/08 01:04:55;;;;;;;7.72;3.47;;;0.40;99.90;;;;;;6182018;23;20029;-80
2021/12/08 01:07:43;;;;;;;8.45;3.67;;;0.40;99.90;;;;;;6181856;23;20179;-80
2021/12/08 01:10:31;;;;;;;5.35;3.28;;;0.40;99.90;;;;;;6180550;23;20052;-81
2021/12/08 01:13:26;;;;;;;5.70;3.90;;;0.40;99.90;;;;;;6181859;23;20048;-80
2021/12/08 01:16:15;;;;;;;5.07;3.40;;;0.40;99.90;;;;;;6182989;23;20145;-80
2021/12/08 01:19:03;;;;;;;4.95;3.17;;;0.40;99.90;;;;;;6182138;23;20339;-80
2021/12/08 01:21:51;;;;;;;7.20;3.88;;;0.40;99.90;;;;;;6181672;23;20029;-80
2021/12/08 01:24:38;;;;;;;5.68;3.33;;;0.40;99.90;;;;;;6182812;23;20488;-80
2021/12/08 01:27:25;;;;;;;6.57;3.63;;;0.40;99.90;;;;;;6142439;23;20025;-80
2021/12/08 01:30:14;;;;;;;6.32;3.30;;;0.40;99.90;;;;;;6182612;23;20028;-79
2021/12/08 01:33:01;;;;;;;6.95;3.40;;;0.40;99.90;;;;;;6182866;23;20096;-81
2021/12/08 01:35:49;;;;;;;7.63;3.78;;;0.40;99.90;;;;;;6161841;23;20048;-80
2021/12/08 01:38:37;;;;;;;8.25;4.10;;;0.40;99.90;;;;;;6182823;23;20091;-81
2021/12/08 01:41:25;;;;;;;9.70;4.38;;;0.40;99.90;;;;;;6183663;23;20083;-80
2021/12/08 01:47:21;;;;;;;6.55;4.75;;;0.40;99.90;;;;;;6183494;23;20033;-81
2021/12/08 01:50:10;;;;;;;6.22;4.13;;;0.40;99.90;;;;;;6182937;23;20096;-80
2021/12/08 01:52:57;;;;;;;9.70;4.15;;;0.40;99.90;;;;;;6183691;23;20036;-79
2021/12/08 01:55:45;;;;;;;7.10;4.45;;;0.40;99.90;;;;;;6183306;23;20487;-80
2021/12/08 01:58:35;;;;;;;8.18;4.68;;;0.40;99.90;;;;;;6182272;23;20053;-82
2021/12/08 02:01:29;;;;;;;9.00;4.45;;;0.40;99.90;;;;;;6182101;23;20325;-81
2021/12/08 02:04:16;;;;;;;14.77;5.05;;;0.40;99.90;;;;;;6183350;23;20110;-82
2021/12/08 02:07:05;;;;;;;7.70;5.00;;;0.40;99.90;;;;;;6181996;23;20408;-79
2021/12/08 02:09:53;;;;;;;6.22;4.45;;;0.40;99.90;;;;;;6142433;23;20036;-79
2021/12/08 02:12:41;;;;;;;6.30;4.50;;;0.50;99.90;;;;;;6182953;23;20036;-80
2021/12/08 02:15:29;;;;;;;7.30;4.50;;;0.50;99.90;;;;;;6183532;23;20089;-80
2021/12/08 02:18:20;;;;;;;7.72;4.53;;;0.50;99.90;;;;;;6181439;23;20156;-79
2021/12/08 02:21:24;;;;;;;10.05;4.93;;;0.50;99.90;;;;;;6163455;23;20069;-79
2021/12/08 02:24:16;;;;;;;7.68;4.57;;;0.50;99.90;;;;;;6185654;23;20095;-78
2021/12/08 02:27:06;;;;;;;12.10;6.07;;;0.50;99.90;;;;;;6187251;23;20041;-78
2021/12/08 02:30:00;;;;;;;8.90;4.80;;;0.50;99.90;;;;;;6130824;23;20124;-79
2021/12/08 02:48:27;;;;;;;9.32;5.80;;;0.60;99.90;;;;;;6183366;23;20099;-83
2021/12/08 02:51:14;;;;;;;11.23;5.97;;;0.70;99.90;;;;;;6160852;23;20051;-82
2021/12/08 02:54:03;;;;;;;10.48;6.22;;;0.70;99.90;;;;;;6160537;23;20662;-81
2021/12/08 02:56:54;;;;;;;13.90;7.88;;;0.70;99.90;;;;;;6161020;23;20028;-79
2021/12/08 02:59:48;;;;;;;17.90;8.35;;;0.70;99.90;;;;;;6160309;23;20101;-80
2021/12/08 03:02:35;;;;;;;15.80;7.75;;;0.60;99.90;;;;;;6160135;23;20025;-80
2021/12/08 03:05:23;;;;;;;12.63;7.47;;;0.60;99.90;;;;;;6141633;23;20040;-81
2021/12/08 03:08:16;;;;;;;8.77;6.75;;;0.60;99.90;;;;;;6160330;23;20360;-81
2021/12/08 03:11:07;;;;;;;11.55;6.50;;;0.60;99.90;;;;;;6162987;23;20124;-79
2021/12/08 03:14:12;;;;;;;15.27;7.88;;;0.80;99.90;;;;;;6160600;23;20035;-81
2021/12/08 03:17:06;;;;;;;23.05;8.57;;;1.00;99.90;;;;;;6181117;23;20045;-80
2021/12/08 03:19:54;;;;;;;16.98;8.93;;;1.10;99.90;;;;;;6160109;23;20028;-82
2021/12/08 03:22:46;;;;;;;16.52;9.45;;;1.20;99.90;;;;;;6141131;23;20024;-80
2021/12/08 03:25:39;;;;;;;16.90;9.48;;;1.30;99.90;;;;;;6182182;23;20028;-81
2021/12/08 03:28:31;;;;;;;12.63;8.27;;;1.50;99.90;;;;;;6177005;23;20025;-80
2021/12/08 03:31:20;;;;;;;17.77;9.73;;;1.60;99.90;;;;;;6143845;23;20124;-79
2021/12/08 03:34:07;;;;;;;16.13;9.57;;;1.60;99.90;;;;;;6182297;23;20031;-80
2021/12/08 03:36:55;;;;;;;16.25;9.95;;;1.70;99.90;;;;;;6161436;23;20389;-81
2021/12/08 03:39:43;;;;;;;13.95;9.32;;;1.70;99.90;;;;;;6161031;23;20349;-81
2021/12/08 03:42:36;;;;;;;18.65;10.55;;;1.70;99.90;;;;;;6180564;23;20172;-81
2021/12/08 03:45:33;;;;;;;18.23;10.57;;;1.80;99.90;;;;;;6186694;23;20029;-80
2021/12/08 03:48:39;;;;;;;13.68;9.68;;;1.80;99.90;;;;;;6189619;23;20021;-79
2021/12/08 03:51:29;;;;;;;15.02;9.45;;;1.80;99.90;;;;;;6184342;23;20140;-79
2021/12/08 03:54:19;;;;;;;13.48;9.57;;;1.70;99.90;;;;;;6143342;23;20199;-80
2021/12/08 03:57:07;;;;;;;19.13;9.57;;;1.80;99.90;;;;;;6142230;23;20087;-80
2021/12/08 03:59:54;;;;;;;14.70;9.60;;;1.90;99.90;;;;;;6164798;23;20036;-79
2021/12/08 04:02:44;;;;;;;16.67;9.02;;;1.90;99.90;;;;;;6165558;23;20096;-78
2021/12/08 04:05:56;;;;;;;13.45;10.23;;;1.90;99.90;;;;;;6192369;23;20096;-79
2021/12/08 04:08:44;;;;;;;15.00;9.43;;;1.70;99.90;;;;;;6188465;23;20028;-80
2021/12/08 04:11:32;;;;;;;15.98;10.73;;;1.80;99.90;;;;;;6182751;23;20025;-79
2021/12/08 04:14:23;;;;;;;15.52;10.93;;;1.90;99.90;;;;;;6182714;23;20020;-80
2021/12/08 04:17:43;;;;;;;16.42;11.57;;;2.00;99.90;;;;;;6184334;23;20091;-80
2021/12/08 04:20:35;;;;;;;20.13;11.98;;;2.20;99.90;;;;;;6175734;23;20093;-80
2021/12/08 04:23:25;;;;;;;21.45;12.63;;;2.30;99.90;;;;;;6183459;23;20458;-80
2021/12/08 04:26:22;;;;;;;21.23;12.50;;;2.40;99.90;;;;;;6184813;23;20029;-82
2021/12/08 04:29:11;;;;;;;23.92;12.95;;;2.50;99.90;;;;;;6184593;23;20104;-84
2021/12/08 04:32:02;;;;;;;22.67;12.27;;;2.50;99.90;;;;;;6183453;23;20025;-82
2021/12/08 04:34:55;;;;;;;17.58;12.35;;;2.60;99.90;;;;;;6183113;23;20038;-83
2021/12/08 04:37:49;;;;;;;23.83;12.98;;;2.70;99.90;;;;;;6183791;23;20037;-80
2021/12/08 04:43:57;;;;;;;16.83;11.90;;;2.70;99.90;;;;;;6183642;23;20128;-83
2021/12/08 04:47:35;;;;;;;18.45;12.48;;;2.70;99.90;;;;;;6184456;22;20069;-83
2021/12/08 04:50:38;;;;;;;17.35;11.70;;;2.60;99.90;;;;;;6183725;23;20025;-81
2021/12/08 04:53:39;;;;;;;19.50;12.73;;;2.60;99.90;;;;;;6183207;23;20025;-82
2021/12/08 05:07:02;;;;;;;23.98;15.30;;;2.60;99.90;;;;;;6184829;23;20049;-82
2021/12/08 05:09:50;;;;;;;24.27;15.75;;;2.50;99.90;;;;;;6184104;23;20480;-81
2021/12/08 05:12:37;;;;;;;26.75;16.80;;;2.50;99.90;;;;;;6184006;23;20039;-82
2021/12/08 05:15:36;;;;;;;25.67;16.02;;;2.50;99.90;;;;;;6184832;23;20032;-81
2021/12/08 05:18:34;;;;;;;24.45;15.85;;;2.50;99.90;;;;;;6185035;23;20040;-81
2021/12/08 05:21:33;;;;;;;29.30;18.00;;;2.50;99.90;;;;;;6181979;23;20025;-82
2021/12/08 05:24:28;;;;;;;29.20;18.00;;;2.50;99.90;;;;;;6182509;23;20657;-83
2021/12/08 05:27:26;;;;;;;28.33;17.83;;;2.50;99.90;;;;;;6184489;23;20043;-82
2021/12/08 05:30:40;;;;;;;28.50;17.60;;;2.50;99.90;;;;;;6162435;23;20360;-82
2021/12/08 05:33:29;;;;;;;29.70;18.05;;;2.50;99.90;;;;;;6185386;23;20103;-82
2021/12/08 05:36:16;;;;;;;29.50;18.27;;;2.40;99.90;;;;;;6163211;23;20025;-87
2021/12/08 05:39:12;;;;;;;30.83;19.27;;;2.40;99.90;;;;;;6162997;23;20694;-88
2021/12/08 05:42:04;;;;;;;31.52;19.65;;;2.40;99.90;;;;;;6167666;23;20298;-88
2021/12/08 05:44:52;;;;;;;34.25;20.00;;;2.40;99.90;;;;;;6185208;23;20114;-87
2021/12/08 05:47:43;;;;;;;31.63;19.55;;;2.40;99.90;;;;;;6170028;23;20025;-87
2021/12/08 05:50:40;;;;;;;32.35;18.75;;;2.40;99.90;;;;;;6168037;23;20025;-88
2021/12/08 05:53:29;;;;;;;32.67;20.13;;;2.40;99.90;;;;;;6162632;23;20044;-85
2021/12/08 05:56:17;;;;;;;31.27;19.05;;;2.40;99.90;;;;;;6183429;23;20096;-86
2021/12/08 05:59:08;;;;;;;33.53;17.90;;;2.40;99.90;;;;;;6182736;23;20063;-83
2021/12/08 06:02:00;;;;;;;31.00;19.40;;;2.40;99.90;;;;;;6184201;23;20397;-87
2021/12/08 06:04:47;;;;;;;18.70;12.33;;;2.40;99.90;;;;;;6185829;23;20064;-84
2021/12/08 06:07:35;;;;;;;29.30;17.20;;;2.40;99.90;;;;;;6185009;23;20021;-86
2021/12/08 06:10:29;;;;;;;25.73;15.63;;;2.40;99.90;;;;;;6167454;23;20036;-87
2021/12/08 06:13:18;;;;;;;23.13;14.45;;;2.40;99.90;;;;;;6166448;23;20025;-86
2021/12/08 06:16:10;;;;;;;24.75;15.82;;;2.50;99.90;;;;;;6186431;23;20081;-84
2021/12/08 06:19:00;;;;;;;25.25;15.48;;;2.50;99.90;;;;;;6185852;23;20029;-86
2021/12/08 06:21:49;;;;;;;21.48;14.18;;;2.50;99.90;;;;;;6164156;23;20083;-85
2021/12/08 06:24:36;;;;;;;19.42;13.85;;;2.50;99.90;;;;;;6184133;23;20032;-84
2021/12/08 06:27:23;;;;;;;17.33;12.40;;;2.50;99.90;;;;;;6184099;23;20029;-86
2021/12/08 06:30:14;;;;;;;24.60;14.70;;;2.50;99.90;;;;;;6142029;23;20021;-88
2021/12/08 06:33:03;;;;;;;19.67;12.80;;;2.50;99.90;;;;;;6161701;23;20021;-82
2021/12/08 06:35:57;;;;;;;17.10;11.18;;;2.60;99.90;;;;;;6181588;23;20380;-82
2021/12/08 06:38:45;;;;;;;20.10;12.75;;;2.60;99.90;;;;;;6180799;23;20504;-83
2021/12/08 06:41:38;;;;;;;19.73;14.07;;;2.60;99.90;;;;;;6161681;23;20130;-84
2021/12/08 06:44:29;;;;;;;18.92;11.93;;;2.50;99.90;;;;;;6181622;23;20456;-83
2021/12/08 06:47:22;;;;;;;21.90;11.45;;;2.50;99.90;;;;;;6160910;23;20052;-84
2021/12/08 06:50:23;;;;;;;17.20;12.30;;;2.50;99.90;;;;;;6156990;23;20029;-80
2021/12/08 06:57:46;;;;;;;18.92;12.30;;;2.50;99.90;;;;;;6038622;23;20082;-89
2021/12/08 07:08:58;;;;;;;24.30;15.25;;;2.50;99.90;;;;;;5901817;24;20069;-92
2021/12/08 07:11:51;;;;;;;23.60;15.10;;;2.50;99.90;;;;;;5881439;24;20080;-88
2021/12/08 07:14:41;;;;;;;26.20;14.30;;;2.50;99.90;;;;;;6009491;23;20369;-88
2021/12/08 07:17:36;;;;;;;18.92;11.35;;;2.50;99.90;;;;;;6007967;23;20052;-85
2021/12/08 07:20:48;;;;;;;26.70;15.35;;;2.50;99.90;;;;;;5978957;24;20448;-86
2021/12/08 07:24:00;;;;;;;28.45;15.93;;;2.50;99.90;;;;;;5981253;23;20047;-86
2021/12/08 07:27:35;;;;;;;28.98;16.58;;;2.50;99.90;;;;;;5971961;23;20028;-89
2021/12/08 07:31:03;;;;;;;28.45;16.50;;;2.50;99.90;;;;;;5992288;23;20351;-85
2021/12/08 07:34:14;;;;;;;30.85;17.52;;;2.50;99.90;;;;;;5992016;23;20027;-86
2021/12/08 07:38:09;;;;;;;27.88;17.27;;;2.40;99.90;;;;;;5924926;24;20039;-85
2021/12/08 07:41:31;;;;;;;29.10;18.20;;;2.40;99.90;;;;;;5910640;24;20047;-87
2021/12/08 07:45:20;;;;;;;;;;;;;;;;;;;;;
2021/12/08 07:48:39;;;;;;;38.45;19.63;;;2.40;99.90;;;;;;5927736;24;20083;-87
2021/12/08 07:51:37;;;;;;;32.85;18.13;;;2.40;99.90;;;;;;5943146;24;20033;-87
2021/12/08 07:54:30;;;;;;;32.53;17.88;;;2.30;99.90;;;;;;5964527;23;20104;-88
2021/12/08 07:57:27;;;;;;;32.67;17.38;;;2.30;99.90;;;;;;5968434;24;20061;-87
2021/12/08 08:00:25;;;;;;;41.05;20.35;;;2.30;99.90;;;;;;5967038;24;20104;-86
2021/12/08 08:03:16;;;;;;;59.42;29.98;;;2.30;99.90;;;;;;5962177;24;20120;-86
2021/12/08 08:06:08;;;;;;;80.50;42.78;;;2.30;99.90;;;;;;5953632;24;20028;-86
2021/12/08 08:08:56;;;;;;;38.15;20.70;;;2.30;99.90;;;;;;6013227;23;20042;-89
2021/12/08 08:11:48;;;;;;;37.05;20.50;;;2.30;99.90;;;;;;6036658;23;20041;-88
2021/12/08 08:14:41;;;;;;;37.80;19.65;;;2.30;99.90;;;;;;6034907;23;20039;-87
2021/12/08 08:17:37;;;;;;;38.03;19.30;;;2.40;99.90;;;;;;6036572;23;20046;-87
2021/12/08 08:20:31;;;;;;;38.75;21.50;;;2.40;99.90;;;;;;6035335;23;20026;-87
2021/12/08 08:23:22;;;;;;;42.58;21.27;;;2.40;99.90;;;;;;6037412;23;20063;-87
2021/12/08 08:26:13;;;;;;;42.42;20.30;;;2.40;99.90;;;;;;6036738;23;20030;-90
2021/12/08 08:29:00;;;;;;;40.97;20.13;;;2.40;99.90;;;;;;6034117;23;20174;-89
2021/12/08 08:31:58;;;;;;;38.67;20.15;;;2.40;99.90;;;;;;6017623;23;20060;-86
2021/12/08 08:34:50;;;;;;;36.13;19.85;;;2.40;99.90;;;;;;6036829;23;20031;-87
2021/12/08 08:37:38;;;;;;;32.85;18.05;;;2.40;99.90;;;;;;6036507;23;20034;-88
2021/12/08 08:40:34;;;;;;;33.97;17.27;;;2.40;99.90;;;;;;6036007;23;20027;-87
2021/12/08 08:43:27;;;;;;;37.75;18.35;;;2.40;99.90;;;;;;6034383;23;20035;-88
2021/12/08 08:46:29;;;;;;;38.35;19.52;;;2.50;99.90;;;;;;6036348;23;20232;-88
2021/12/08 08:49:22;;;;;;;37.60;21.08;;;2.50;99.90;;;;;;6034698;23;20151;-88
2021/12/08 08:52:25;;;;;;;;;;;2.50;99.90;;;;;;6038029;23;20027;-89
2021/12/08 08:55:19;;;;;;;39.83;21.20;;;2.50;99.90;;;;;;6036306;23;19977;-88
2021/12/08 08:58:09;;;;;;;48.05;25.45;;;2.50;99.90;;;;;;6017319;23;20035;-88
2021/12/08 09:01:05;;;;;;;51.85;25.17;;;2.40;99.90;;;;;;6035435;23;20046;-87
2021/12/08 09:04:07;;;;;;;53.55;28.20;;;2.40;99.90;;;;;;6017959;23;20023;-88
2021/12/08 09:07:02;;;;;;;47.35;26.17;;;2.40;99.90;;;;;;6034472;23;20043;-87
2021/12/08 09:10:47;;;;;;;45.40;24.13;;;2.40;99.90;;;;;;6037054;23;20118;-89
2021/12/08 09:18:17;;;;;;;;;;;;;;;;;;;;;
2021/12/08 10:16:39;;;;;;;;;;;;;;;;;;;;;
2021/12/08 10:19:49;;;;;;;44.40;25.95;;;3.00;99.90;;;;;;4876209;29;20053;-89
2021/12/08 10:23:43;;;;;;;;;;;;;;;;;;;;;
2021/12/08 10:27:24;;;;;;;36.67;21.98;;;3.00;99.90;;;;;;4865420;29;20094;-89
2021/12/08 10:30:41;;;;;;;;;;;;;;;;;;;;;
2021/12/08 10:33:59;;;;;;;20.17;12.60;;;3.10;99.90;;;;;;4796273;29;20077;-90
2021/12/08 11:01:29;;;;;;;16.35;11.57;;;3.20;99.90;;;;;;4911677;29;20481;-89
2021/12/08 11:04:30;;;;;;;18.05;11.70;;;3.30;99.90;;;;;;4912682;29;20469;-88
2021/12/08 11:07:31;;;;;;;;;;;;;;;;;;;;;
2021/12/08 11:21:18;;;;;;;;;;;;;;;;;;;;;
2021/12/08 11:27:59;;;;;;;12.40;8.95;;;3.30;99.90;;;;;;4900288;29;20049;-88
2021/12/08 11:30:54;;;;;;;12.25;9.70;;;3.30;99.90;;;;;;4890810;29;20076;-88
2021/12/08 11:34:19;;;;;;;13.57;9.30;;;3.30;99.90;;;;;;4885450;29;20108;-87
2021/12/08 11:37:14;;;;;;;18.73;11.63;;;3.20;99.90;;;;;;4891312;29;20041;-90
2021/12/08 11:40:19;;;;;;;13.82;9.80;;;3.30;99.90;;;;;;4892531;29;20429;-86
2021/12/08 11:43:35;;;;;;;16.23;9.52;;;3.40;99.90;;;;;;4899894;29;20067;-89
2021/12/08 11:46:56;;;;;;;14.15;10.13;;;3.40;99.90;;;;;;4880648;29;20071;-88
2021/12/08 11:50:21;;;;;;;13.25;10.13;;;3.40;99.90;;;;;;4898221;29;20060;-88
2021/12/08 11:53:22;;;;;;;17.17;11.52;;;3.40;99.90;;;;;;4888602;29;20056;-87
2021/12/08 11:57:10;;;;;;;;;;;;;;;;;;;;;
2021/12/08 12:04:13;;;;;;;20.50;13.55;;;3.30;99.90;;;;;;4905204;29;20051;-88
2021/12/08 12:07:50;;;;;;;;;;;;;;;;;;;;;
2021/12/08 12:16:38;;;;;;;;;;;;;;;;;;;;;
2021/12/08 12:20:18;;;;;;;;;;;;;;;;;;;;;
2021/12/08 12:54:09;;;;;;;;;;;;;;;;;;;;;
2021/12/08 13:06:00;;;;;;;28.80;16.40;;;3.50;99.90;;;;;;4667953;30;20042;-89
2021/12/08 13:08:53;;;;;;;28.17;17.80;;;3.40;99.90;;;;;;4690893;30;20053;-91
2021/12/08 13:12:05;;;;;;;25.73;17.50;;;3.40;99.90;;;;;;4713004;30;20121;-89
2021/12/08 13:44:36;;;;;;;29.50;18.67;;;3.30;99.90;;;;;;4682264;30;20046;-89
2021/12/08 14:19:05;;;;;;;34.95;21.08;;;3.00;99.90;;;;;;5139783;27;20038;-87
2021/12/08 14:26:21;;;;;;;34.30;20.55;;;3.10;99.90;;;;;;5131033;27;20043;-89
2021/12/08 14:29:21;;;;;;;34.45;20.13;;;3.10;99.90;;;;;;5142860;27;20378;-88
2021/12/08 14:32:46;;;;;;;32.97;19.83;;;3.10;99.90;;;;;;5150012;27;20047;-89
2021/12/08 14:36:59;;;;;;;;;;;;;;;;;;;;;
2021/12/08 14:40:16;;;;;;;32.70;20.75;;;3.10;99.90;;;;;;5131688;27;20055;-86
2021/12/08 14:43:07;;;;;;;29.05;20.10;;;3.10;99.90;;;;;;5146966;27;20038;-88
2021/12/08 14:46:34;;;;;;;;;;;;;;;;;;;;;
2021/12/08 15:01:06;;;;;;;26.90;17.05;;;3.10;99.90;;;;;;5059853;28;20316;-90
2021/12/08 15:05:08;;;;;;;26.30;17.23;;;3.00;99.90;;;;;;4999173;28;20466;-90
2021/12/08 15:09:40;;;;;;;;;;;;;;;;;;;;;
2021/12/08 15:13:12;;;;;;;37.13;21.92;;;3.00;99.90;;;;;;4916255;29;20111;-87
2021/12/08 15:16:54;;;;;;;;;;;2.90;99.90;;;;;;4896243;29;20104;-87
2021/12/08 15:23:46;;;;;;;42.08;20.67;;;2.80;99.90;;;;;;4888378;29;20049;-91
2021/12/08 15:26:53;;;;;;;35.17;20.95;;;2.80;99.90;;;;;;4901165;29;20107;-87
2021/12/08 15:29:48;;;;;;;33.17;21.17;;;2.80;99.90;;;;;;4905253;29;20396;-89
2021/12/08 15:33:04;;;;;;;36.95;21.38;;;2.70;99.90;;;;;;4904127;29;20044;-87
2021/12/08 15:36:02;;;;;;;32.47;20.05;;;2.80;99.90;;;;;;4942563;28;20055;-88
2021/12/08 15:39:02;;;;;;;37.92;20.10;;;2.70;99.90;;;;;;4968781;28;20057;-87
2021/12/08 15:42:02;;;;;;;;;;;;;;;;;;;;;
2021/12/08 15:45:38;;;;;;;;;;;;;;;;;;;;;
2021/12/08 15:48:54;;;;;;;41.83;25.00;;;2.70;99.90;;;;;;4972247;28;20489;-89
2021/12/08 15:51:52;;;;;;;39.03;24.08;;;2.70;99.90;;;;;;4964089;28;20058;-89
2021/12/08 15:58:55;;;;;;;44.60;24.65;;;2.70;99.90;;;;;;4933850;29;20153;-89
2021/12/08 16:02:33;;;;;;;;;;;;;;;;;;;;;
2021/12/08 16:06:07;;;;;;;;;;;;;;;;;;;;;
2021/12/08 16:09:40;;;;;;;46.88;25.60;;;2.70;99.90;;;;;;4891525;29;20047;-88
2021/12/08 16:21:22;;;;;;;44.05;26.33;;;2.60;99.90;;;;;;5007854;28;20041;-88
2021/12/08 16:24:11;;;;;;;42.58;25.30;;;2.60;99.90;;;;;;5040499;28;20126;-89
2021/12/08 16:27:30;;;;;;;45.90;26.88;;;2.60;99.90;;;;;;5054591;28;20048;-88
2021/12/08 16:30:23;;;;;;;47.70;27.30;;;2.60;99.90;;;;;;5054647;28;20049;-90
2021/12/08 16:33:11;;;;;;;;;;;2.60;99.90;;;;;;5037994;28;20040;-88
2021/12/08 16:36:19;;;;;;;52.15;28.85;;;2.60;99.90;;;;;;5051855;28;19930;-89
2021/12/08 16:39:09;;;;;;;71.30;37.47;;;2.60;99.90;;;;;;5045249;28;20064;-89
2021/12/08 16:45:06;;;;;;;77.05;43.00;;;2.60;99.90;;;;;;5053895;28;20052;-88
2021/12/08 16:47:57;;;;;;;83.47;44.47;;;2.60;99.90;;;;;;5070324;28;20068;-89
2021/12/08 17:04:22;;;;;;;63.45;34.80;;;2.70;99.90;;;;;;5060668;28;20048;-89
2021/12/08 17:11:46;;;;;;;62.53;32.67;;;2.70;99.90;;;;;;5075503;28;20020;-92
2021/12/08 18:10:00;;;;;;;;;;;;;;;;;;;;;
2021/12/08 18:20:59;;;;;;;67.68;35.80;;;2.60;99.90;;;;;;4967222;28;20073;-90
2021/12/08 18:27:59;;;;;;;61.22;31.95;;;2.60;99.90;;;;;;4998235;28;20093;-88
2021/12/08 18:30:59;;;;;;;43.63;21.77;;;2.50;99.90;;;;;;5006967;28;20066;-88
2021/12/08 18:34:15;;;;;;;41.92;20.63;;;2.50;99.90;;;;;;5060448;28;20044;-89
2021/12/08 18:37:09;;;;;;;32.65;15.02;;;2.50;99.90;;;;;;5047273;28;20044;-88
2021/12/08 18:40:43;;;;;;;21.98;11.23;;;2.40;99.90;;;;;;5075671;28;20041;-87
2021/12/08 18:43:34;;;;;;;21.55;9.95;;;2.50;99.90;;;;;;5083161;28;20044;-88
2021/12/08 18:46:33;;;;;;;28.85;11.88;;;2.40;99.90;;;;;;5054014;28;20115;-87
2021/12/08 18:49:22;;;;;;;21.02;10.77;;;2.40;99.90;;;;;;5064999;28;20055;-88
2021/12/08 18:52:11;;;;;;;27.58;11.23;;;2.40;99.90;;;;;;5066573;28;20508;-87
2021/12/08 18:55:27;;;;;;;24.13;9.00;;;2.40;99.90;;;;;;5062832;28;20052;-89
2021/12/08 18:58:16;;;;;;;20.85;8.52;;;2.40;99.90;;;;;;5056113;28;20048;-86
2021/12/08 19:01:56;;;;;;;19.50;7.95;;;2.40;99.90;;;;;;5053263;28;20068;-89
2021/12/08 19:05:22;;;;;;;;;;;;;;;;;;;;;
2021/12/08 19:17:00;;;;;;;16.98;5.65;;;2.40;99.90;;;;;;4943788;29;20027;-87
2021/12/08 19:19:53;;;;;;;17.88;5.78;;;2.30;99.90;;;;;;4924609;29;20395;-87
2021/12/08 19:23:00;;;;;;;28.10;6.13;;;2.40;99.90;;;;;;4935081;29;20107;-87
2021/12/08 19:26:42;;;;;;;;;;;;;;;;;;;;;
2021/12/08 19:31:03;;;;;;;21.60;8.05;;;2.40;99.90;;;;;;4990501;28;20196;-89
2021/12/08 19:33:57;;;;;;;19.85;6.78;;;2.40;99.90;;;;;;5002410;28;20073;-88
2021/12/08 19:58:37;;;;;;;13.90;5.47;;;2.50;99.90;;;;;;4847052;29;20078;-88
2021/12/08 20:01:38;;;;;;;17.95;5.20;;;2.30;99.90;;;;;;4916817;28;20044;-88
2021/12/08 20:04:28;;;;;;;21.15;5.53;;;2.10;99.90;;;;;;5018285;28;20118;-89
2021/12/08 20:07:30;;;;;;;12.93;5.15;;;2.00;99.90;;;;;;5040797;28;20045;-89
2021/12/08 20:10:19;;;;;;;12.63;5.53;;;1.80;99.90;;;;;;5060739;28;20046;-87
2021/12/08 20:13:11;;;;;;;21.45;7.18;;;1.70;99.90;;;;;;5073388;28;20029;-86
2021/12/08 20:16:01;;;;;;;14.57;6.07;;;1.60;99.90;;;;;;5054726;28;20040;-88
2021/12/08 20:20:11;;;;;;;;;;;;;;;;;;;;;
2021/12/08 20:27:48;;;;;;;15.10;10.02;;;1.50;99.90;;;;;;4991777;28;20109;-87
2021/12/08 20:36:24;;;;;;;;;;;;;;;;;;;;;
2021/12/08 20:38:58;;;;;;;13.23;5.95;;;1.50;99.90;;;;;;5016727;28;20045;-86
2021/12/08 20:41:50;;;;;;;17.83;6.03;;;1.50;99.90;;;;;;5019317;28;20049;-88
2021/12/08 20:45:15;;;;;;;15.32;5.78;;;1.50;99.90;;;;;;5021179;28;20619;-88
2021/12/08 20:49:01;;;;;;;19.20;5.78;;;1.50;99.90;;;;;;5032654;28;20038;-88
2021/12/08 20:52:28;;;;;;;;;;;;;;;;;;;;;
2021/12/08 20:55:50;;;;;;;23.52;8.40;;;1.40;99.90;;;;;;5025080;28;20037;-90
2021/12/08 20:59:01;;;;;;;17.83;8.13;;;1.40;99.90;;;;;;5041706;28;20048;-90
2021/12/08 21:19:53;;;;;;;27.38;12.82;;;1.60;99.90;;;;;;4840718;29;20409;-88
2021/12/08 21:45:05;;;;;;;45.00;20.73;;;1.70;99.90;;;;;;4954617;28;20113;-89
